sensor_id;sensor_type;location;lat;lon;timestamp;P1;durP1;ratioP1;P2;durP2;ratioP2
32964;SDS011;19317;48.226;11.686;2023-04-06T00:03:43;4.87;;;4.47;;
32964;SDS011;19317;48.226;11.686;2023-04-06T00:08:33;7.37;;;4.40;;
32964;SDS011;19317;48.226;11.686;2023-04-06T00:13:24;5.23;;;4.70;;
32964;SDS011;19317;48.226;11.686;2023-04-06T00:18:14;6.07;;;4.60;;
32964;SDS011;19317;48.226;11.686;2023-04-06T00:23:05;5.53;;;4.67;;
32964;SDS011;19317;48.226;11.686;2023-04-06T00:27:55;5.57;;;5.00;;
32964;SDS011;19317;48.226;11.686;2023-04-06T00:32:46;4.70;;;4.30;;
32964;SDS011;19317;48.226;11.686;2023-04-06T00:37:36;6.77;;;4.90;;
32964;SDS011;19317;48.226;11.686;2023-04-06T00:42:27;7.07;;;4.80;;
32964;SDS011;19317;48.226;11.686;2023-04-06T00:47:17;7.07;;;5.50;;
32964;SDS011;19317;48.226;11.686;2023-04-06T00:52:08;5.73;;;5.00;;
32964;SDS011;19317;48.226;11.686;2023-04-06T00:56:58;5.30;;;4.80;;
32964;SDS011;19317;48.226;11.686;2023-04-06T01:01:49;6.67;;;4.63;;
32964;SDS011;19317;48.226;11.686;2023-04-06T01:06:39;6.43;;;4.43;;
32964;SDS011;19317;48.226;11.686;2023-04-06T01:11:30;7.87;;;4.70;;
32964;SDS011;19317;48.226;11.686;2023-04-06T01:16:20;6.13;;;4.90;;
32964;SDS011;19317;48.226;11.686;2023-04-06T01:21:10;5.00;;;4.60;;
32964;SDS011;19317;48.226;11.686;2023-04-06T01:26:01;6.53;;;4.80;;
32964;SDS011;19317;48.226;11.686;2023-04-06T01:30:51;5.50;;;4.83;;
32964;SDS011;19317;48.226;11.686;2023-04-06T01:35:42;5.27;;;4.80;;
32964;SDS011;19317;48.226;11.686;2023-04-06T01:40:32;5.57;;;5.00;;
32964;SDS011;19317;48.226;11.686;2023-04-06T01:45:23;7.70;;;5.30;;
32964;SDS011;19317;48.226;11.686;2023-04-06T01:50:13;6.53;;;4.83;;
32964;SDS011;19317;48.226;11.686;2023-04-06T01:55:04;6.80;;;4.60;;
32964;SDS011;19317;48.226;11.686;2023-04-06T01:59:54;5.43;;;4.63;;
32964;SDS011;19317;48.226;11.686;2023-04-06T02:04:45;5.87;;;4.67;;
32964;SDS011;19317;48.226;11.686;2023-04-06T02:09:35;5.17;;;4.67;;
32964;SDS011;19317;48.226;11.686;2023-04-06T02:14:26;5.53;;;4.87;;
32964;SDS011;19317;48.226;11.686;2023-04-06T02:19:16;6.43;;;5.53;;
32964;SDS011;19317;48.226;11.686;2023-04-06T02:24:07;6.07;;;5.13;;
32964;SDS011;19317;48.226;11.686;2023-04-06T02:28:57;4.63;;;4.23;;
32964;SDS011;19317;48.226;11.686;2023-04-06T02:33:48;7.00;;;4.70;;
32964;SDS011;19317;48.226;11.686;2023-04-06T02:38:38;4.93;;;4.43;;
32964;SDS011;19317;48.226;11.686;2023-04-06T02:43:29;7.50;;;4.90;;
32964;SDS011;19317;48.226;11.686;2023-04-06T02:48:19;5.60;;;5.07;;
32964;SDS011;19317;48.226;11.686;2023-04-06T02:53:09;5.30;;;4.80;;
32964;SDS011;19317;48.226;11.686;2023-04-06T02:58:01;6.03;;;4.70;;
32964;SDS011;19317;48.226;11.686;2023-04-06T03:02:51;5.37;;;4.53;;
32964;SDS011;19317;48.226;11.686;2023-04-06T03:07:42;5.10;;;4.30;;
32964;SDS011;19317;48.226;11.686;2023-04-06T03:12:32;4.73;;;4.20;;
32964;SDS011;19317;48.226;11.686;2023-04-06T03:17:23;5.53;;;5.03;;
32964;SDS011;19317;48.226;11.686;2023-04-06T03:22:13;4.80;;;4.40;;
32964;SDS011;19317;48.226;11.686;2023-04-06T03:27:04;7.57;;;4.20;;
32964;SDS011;19317;48.226;11.686;2023-04-06T03:31:54;6.60;;;5.17;;
32964;SDS011;19317;48.226;11.686;2023-04-06T03:36:44;5.23;;;4.63;;
32964;SDS011;19317;48.226;11.686;2023-04-06T03:41:35;5.80;;;4.17;;
32964;SDS011;19317;48.226;11.686;2023-04-06T03:46:25;5.10;;;4.70;;
32964;SDS011;19317;48.226;11.686;2023-04-06T03:51:16;5.00;;;4.50;;
32964;SDS011;19317;48.226;11.686;2023-04-06T03:56:06;5.33;;;4.53;;
32964;SDS011;19317;48.226;11.686;2023-04-06T04:00:57;4.80;;;4.30;;
32964;SDS011;19317;48.226;11.686;2023-04-06T04:05:48;4.40;;;4.00;;
32964;SDS011;19317;48.226;11.686;2023-04-06T04:10:39;5.40;;;4.10;;
32964;SDS011;19317;48.226;11.686;2023-04-06T04:15:29;5.50;;;4.57;;
32964;SDS011;19317;48.226;11.686;2023-04-06T04:20:20;4.57;;;4.17;;
32964;SDS011;19317;48.226;11.686;2023-04-06T04:25:10;4.80;;;4.33;;
32964;SDS011;19317;48.226;11.686;2023-04-06T04:30:00;4.50;;;4.10;;
32964;SDS011;19317;48.226;11.686;2023-04-06T04:34:51;4.77;;;4.20;;
32964;SDS011;19317;48.226;11.686;2023-04-06T04:39:41;4.23;;;3.83;;
32964;SDS011;19317;48.226;11.686;2023-04-06T04:44:32;6.07;;;4.57;;
32964;SDS011;19317;48.226;11.686;2023-04-06T04:49:22;4.80;;;4.30;;
32964;SDS011;19317;48.226;11.686;2023-04-06T04:54:13;5.17;;;4.20;;
32964;SDS011;19317;48.226;11.686;2023-04-06T04:59:03;4.77;;;4.37;;
32964;SDS011;19317;48.226;11.686;2023-04-06T05:03:53;5.27;;;4.27;;
32964;SDS011;19317;48.226;11.686;2023-04-06T05:08:44;5.80;;;4.50;;
32964;SDS011;19317;48.226;11.686;2023-04-06T05:13:34;5.43;;;4.60;;
32964;SDS011;19317;48.226;11.686;2023-04-06T05:18:25;6.00;;;5.40;;
32964;SDS011;19317;48.226;11.686;2023-04-06T05:23:16;5.07;;;4.57;;
32964;SDS011;19317;48.226;11.686;2023-04-06T05:28:06;5.50;;;4.37;;
32964;SDS011;19317;48.226;11.686;2023-04-06T05:32:56;4.67;;;4.27;;
32964;SDS011;19317;48.226;11.686;2023-04-06T05:37:48;4.80;;;4.30;;
32964;SDS011;19317;48.226;11.686;2023-04-06T05:42:39;4.80;;;4.27;;
32964;SDS011;19317;48.226;11.686;2023-04-06T05:47:30;7.13;;;4.20;;
32964;SDS011;19317;48.226;11.686;2023-04-06T05:52:21;5.60;;;4.43;;
32964;SDS011;19317;48.226;11.686;2023-04-06T05:57:11;5.43;;;4.40;;
32964;SDS011;19317;48.226;11.686;2023-04-06T06:02:01;4.47;;;3.97;;
32964;SDS011;19317;48.226;11.686;2023-04-06T06:06:52;4.80;;;4.37;;
32964;SDS011;19317;48.226;11.686;2023-04-06T06:11:42;6.13;;;4.57;;
32964;SDS011;19317;48.226;11.686;2023-04-06T06:16:33;5.87;;;4.30;;
32964;SDS011;19317;48.226;11.686;2023-04-06T06:21:23;6.10;;;4.23;;
32964;SDS011;19317;48.226;11.686;2023-04-06T06:26:14;6.73;;;4.53;;
32964;SDS011;19317;48.226;11.686;2023-04-06T06:31:04;5.63;;;4.27;;
32964;SDS011;19317;48.226;11.686;2023-04-06T06:35:55;5.53;;;5.00;;
32964;SDS011;19317;48.226;11.686;2023-04-06T06:40:45;6.13;;;4.67;;
32964;SDS011;19317;48.226;11.686;2023-04-06T06:45:36;4.60;;;4.20;;
32964;SDS011;19317;48.226;11.686;2023-04-06T06:50:26;4.67;;;4.27;;
32964;SDS011;19317;48.226;11.686;2023-04-06T06:55:17;7.77;;;4.50;;
32964;SDS011;19317;48.226;11.686;2023-04-06T07:00:08;5.63;;;4.37;;
32964;SDS011;19317;48.226;11.686;2023-04-06T07:04:59;5.37;;;4.43;;
32964;SDS011;19317;48.226;11.686;2023-04-06T07:09:49;5.17;;;4.67;;
32964;SDS011;19317;48.226;11.686;2023-04-06T07:14:40;5.33;;;4.80;;
32964;SDS011;19317;48.226;11.686;2023-04-06T07:19:30;7.83;;;4.73;;
32964;SDS011;19317;48.226;11.686;2023-04-06T07:24:20;5.30;;;4.80;;
32964;SDS011;19317;48.226;11.686;2023-04-06T07:29:11;6.10;;;4.43;;
32964;SDS011;19317;48.226;11.686;2023-04-06T07:34:01;5.80;;;4.80;;
32964;SDS011;19317;48.226;11.686;2023-04-06T07:38:52;7.13;;;4.97;;
32964;SDS011;19317;48.226;11.686;2023-04-06T07:43:42;8.70;;;4.47;;
32964;SDS011;19317;48.226;11.686;2023-04-06T07:48:33;5.90;;;4.60;;
32964;SDS011;19317;48.226;11.686;2023-04-06T07:53:23;7.20;;;4.67;;
32964;SDS011;19317;48.226;11.686;2023-04-06T07:58:13;5.90;;;4.67;;
32964;SDS011;19317;48.226;11.686;2023-04-06T08:03:04;6.40;;;4.87;;
32964;SDS011;19317;48.226;11.686;2023-04-06T08:07:54;6.20;;;4.67;;
32964;SDS011;19317;48.226;11.686;2023-04-06T08:12:45;6.87;;;5.40;;
32964;SDS011;19317;48.226;11.686;2023-04-06T08:17:35;7.93;;;5.20;;
32964;SDS011;19317;48.226;11.686;2023-04-06T08:22:26;7.57;;;4.93;;
32964;SDS011;19317;48.226;11.686;2023-04-06T08:27:16;5.13;;;4.63;;
32964;SDS011;19317;48.226;11.686;2023-04-06T08:32:07;6.20;;;4.80;;
32964;SDS011;19317;48.226;11.686;2023-04-06T08:36:57;5.17;;;4.50;;
32964;SDS011;19317;48.226;11.686;2023-04-06T08:41:48;5.17;;;4.17;;
32964;SDS011;19317;48.226;11.686;2023-04-06T08:46:38;7.57;;;4.60;;
32964;SDS011;19317;48.226;11.686;2023-04-06T08:51:29;6.60;;;4.17;;
32964;SDS011;19317;48.226;11.686;2023-04-06T08:56:20;4.50;;;4.07;;
32964;SDS011;19317;48.226;11.686;2023-04-06T09:01:12;5.80;;;4.37;;
32964;SDS011;19317;48.226;11.686;2023-04-06T09:06:04;4.63;;;4.23;;
32964;SDS011;19317;48.226;11.686;2023-04-06T09:10:55;4.50;;;3.97;;
32964;SDS011;19317;48.226;11.686;2023-04-06T09:15:46;6.53;;;4.77;;
32964;SDS011;19317;48.226;11.686;2023-04-06T09:20:36;5.10;;;4.60;;
32964;SDS011;19317;48.226;11.686;2023-04-06T09:25:27;4.90;;;4.43;;
32964;SDS011;19317;48.226;11.686;2023-04-06T09:30:17;6.00;;;4.77;;
32964;SDS011;19317;48.226;11.686;2023-04-06T09:35:08;4.93;;;4.53;;
32964;SDS011;19317;48.226;11.686;2023-04-06T09:40:05;6.27;;;5.20;;
32964;SDS011;19317;48.226;11.686;2023-04-06T09:44:56;5.73;;;4.87;;
32964;SDS011;19317;48.226;11.686;2023-04-06T09:49:47;5.03;;;4.53;;
32964;SDS011;19317;48.226;11.686;2023-04-06T09:54:45;5.73;;;5.23;;
32964;SDS011;19317;48.226;11.686;2023-04-06T10:04:56;7.47;;;5.20;;
32964;SDS011;19317;48.226;11.686;2023-04-06T10:09:52;6.67;;;5.00;;
32964;SDS011;19317;48.226;11.686;2023-04-06T10:14:44;5.63;;;5.03;;
32964;SDS011;19317;48.226;11.686;2023-04-06T10:19:44;6.20;;;5.60;;
32964;SDS011;19317;48.226;11.686;2023-04-06T10:24:41;8.93;;;5.53;;
32964;SDS011;19317;48.226;11.686;2023-04-06T10:29:44;7.30;;;5.20;;
32964;SDS011;19317;48.226;11.686;2023-04-06T10:34:36;6.37;;;5.40;;
32964;SDS011;19317;48.226;11.686;2023-04-06T10:39:26;6.10;;;5.30;;
32964;SDS011;19317;48.226;11.686;2023-04-06T10:44:17;6.17;;;5.57;;
32964;SDS011;19317;48.226;11.686;2023-04-06T10:49:11;6.87;;;6.00;;
32964;SDS011;19317;48.226;11.686;2023-04-06T10:54:01;6.33;;;5.50;;
32964;SDS011;19317;48.226;11.686;2023-04-06T10:58:55;6.50;;;5.57;;
32964;SDS011;19317;48.226;11.686;2023-04-06T11:03:46;7.50;;;5.67;;
32964;SDS011;19317;48.226;11.686;2023-04-06T11:08:37;7.57;;;5.97;;
32964;SDS011;19317;48.226;11.686;2023-04-06T11:13:38;6.10;;;5.50;;
32964;SDS011;19317;48.226;11.686;2023-04-06T11:18:32;6.83;;;5.70;;
32964;SDS011;19317;48.226;11.686;2023-04-06T11:23:23;8.63;;;6.60;;
32964;SDS011;19317;48.226;11.686;2023-04-06T11:28:14;7.97;;;6.60;;
32964;SDS011;19317;48.226;11.686;2023-04-06T11:33:04;6.50;;;5.90;;
32964;SDS011;19317;48.226;11.686;2023-04-06T11:37:55;7.50;;;6.50;;
32964;SDS011;19317;48.226;11.686;2023-04-06T11:42:51;6.97;;;6.07;;
32964;SDS011;19317;48.226;11.686;2023-04-06T11:47:42;7.03;;;6.30;;
32964;SDS011;19317;48.226;11.686;2023-04-06T11:52:33;7.50;;;6.80;;
32964;SDS011;19317;48.226;11.686;2023-04-06T11:57:23;7.20;;;6.40;;
32964;SDS011;19317;48.226;11.686;2023-04-06T12:02:14;8.13;;;6.83;;
32964;SDS011;19317;48.226;11.686;2023-04-06T12:07:04;6.83;;;6.23;;
32964;SDS011;19317;48.226;11.686;2023-04-06T12:11:55;6.87;;;6.00;;
32964;SDS011;19317;48.226;11.686;2023-04-06T12:16:45;7.90;;;6.27;;
32964;SDS011;19317;48.226;11.686;2023-04-06T12:21:36;6.63;;;6.03;;
32964;SDS011;19317;48.226;11.686;2023-04-06T12:26:27;7.73;;;6.87;;
32964;SDS011;19317;48.226;11.686;2023-04-06T12:31:18;7.10;;;6.40;;
32964;SDS011;19317;48.226;11.686;2023-04-06T12:36:12;7.70;;;6.87;;
32964;SDS011;19317;48.226;11.686;2023-04-06T12:41:03;7.13;;;6.43;;
32964;SDS011;19317;48.226;11.686;2023-04-06T12:45:53;7.30;;;6.60;;
32964;SDS011;19317;48.226;11.686;2023-04-06T12:50:44;7.93;;;7.17;;
32964;SDS011;19317;48.226;11.686;2023-04-06T12:55:34;7.03;;;6.27;;
32964;SDS011;19317;48.226;11.686;2023-04-06T13:00:25;7.30;;;6.50;;
32964;SDS011;19317;48.226;11.686;2023-04-06T13:05:15;7.07;;;6.40;;
32964;SDS011;19317;48.226;11.686;2023-04-06T13:10:06;6.30;;;5.70;;
32964;SDS011;19317;48.226;11.686;2023-04-06T13:14:57;6.50;;;5.90;;
32964;SDS011;19317;48.226;11.686;2023-04-06T13:19:47;5.60;;;5.10;;
32964;SDS011;19317;48.226;11.686;2023-04-06T13:24:38;6.40;;;5.00;;
32964;SDS011;19317;48.226;11.686;2023-04-06T13:29:28;5.57;;;4.97;;
32964;SDS011;19317;48.226;11.686;2023-04-06T13:34:18;5.77;;;5.17;;
32964;SDS011;19317;48.226;11.686;2023-04-06T13:39:09;5.10;;;4.60;;
32964;SDS011;19317;48.226;11.686;2023-04-06T13:43:59;5.53;;;4.83;;
32964;SDS011;19317;48.226;11.686;2023-04-06T13:48:50;5.20;;;4.70;;
32964;SDS011;19317;48.226;11.686;2023-04-06T13:53:40;5.47;;;4.97;;
32964;SDS011;19317;48.226;11.686;2023-04-06T13:58:31;5.60;;;5.10;;
32964;SDS011;19317;48.226;11.686;2023-04-06T14:03:21;5.27;;;4.70;;
32964;SDS011;19317;48.226;11.686;2023-04-06T14:08:12;5.60;;;5.00;;
32964;SDS011;19317;48.226;11.686;2023-04-06T14:13:02;5.27;;;4.77;;
32964;SDS011;19317;48.226;11.686;2023-04-06T14:17:53;5.43;;;4.93;;
32964;SDS011;19317;48.226;11.686;2023-04-06T14:22:43;5.60;;;4.90;;
32964;SDS011;19317;48.226;11.686;2023-04-06T14:27:34;4.93;;;4.47;;
32964;SDS011;19317;48.226;11.686;2023-04-06T14:32:24;4.57;;;4.17;;
32964;SDS011;19317;48.226;11.686;2023-04-06T14:37:15;5.30;;;4.80;;
32964;SDS011;19317;48.226;11.686;2023-04-06T14:42:05;6.53;;;4.70;;
32964;SDS011;19317;48.226;11.686;2023-04-06T14:46:56;3.87;;;3.50;;
32964;SDS011;19317;48.226;11.686;2023-04-06T14:51:46;4.30;;;3.90;;
32964;SDS011;19317;48.226;11.686;2023-04-06T14:56:36;4.40;;;4.00;;
32964;SDS011;19317;48.226;11.686;2023-04-06T15:01:27;4.50;;;4.10;;
32964;SDS011;19317;48.226;11.686;2023-04-06T15:06:18;4.80;;;4.30;;
32964;SDS011;19317;48.226;11.686;2023-04-06T15:11:08;5.30;;;4.80;;
32964;SDS011;19317;48.226;11.686;2023-04-06T15:15:59;5.80;;;4.90;;
32964;SDS011;19317;48.226;11.686;2023-04-06T15:20:50;4.87;;;4.37;;
32964;SDS011;19317;48.226;11.686;2023-04-06T15:25:41;5.80;;;4.50;;
32964;SDS011;19317;48.226;11.686;2023-04-06T15:30:31;4.90;;;4.50;;
32964;SDS011;19317;48.226;11.686;2023-04-06T15:35:22;4.90;;;4.47;;
32964;SDS011;19317;48.226;11.686;2023-04-06T15:40:13;4.90;;;4.40;;
32964;SDS011;19317;48.226;11.686;2023-04-06T15:45:03;4.70;;;4.30;;
32964;SDS011;19317;48.226;11.686;2023-04-06T15:49:54;5.23;;;4.73;;
32964;SDS011;19317;48.226;11.686;2023-04-06T15:54:45;6.00;;;4.63;;
32964;SDS011;19317;48.226;11.686;2023-04-06T15:59:35;5.67;;;4.40;;
32964;SDS011;19317;48.226;11.686;2023-04-06T16:04:26;4.93;;;4.43;;
32964;SDS011;19317;48.226;11.686;2023-04-06T16:09:17;4.90;;;4.13;;
32964;SDS011;19317;48.226;11.686;2023-04-06T16:14:07;5.30;;;4.50;;
32964;SDS011;19317;48.226;11.686;2023-04-06T16:18:58;4.97;;;4.53;;
32964;SDS011;19317;48.226;11.686;2023-04-06T16:23:48;7.53;;;6.30;;
32964;SDS011;19317;48.226;11.686;2023-04-06T16:28:39;6.50;;;5.70;;
32964;SDS011;19317;48.226;11.686;2023-04-06T16:33:30;7.13;;;5.57;;
32964;SDS011;19317;48.226;11.686;2023-04-06T16:38:20;4.67;;;4.27;;
32964;SDS011;19317;48.226;11.686;2023-04-06T16:43:12;7.43;;;4.93;;
32964;SDS011;19317;48.226;11.686;2023-04-06T16:48:03;5.90;;;5.20;;
32964;SDS011;19317;48.226;11.686;2023-04-06T16:52:54;4.93;;;4.50;;
32964;SDS011;19317;48.226;11.686;2023-04-06T16:57:44;5.47;;;4.97;;
32964;SDS011;19317;48.226;11.686;2023-04-06T17:02:34;7.10;;;4.70;;
32964;SDS011;19317;48.226;11.686;2023-04-06T17:07:25;5.17;;;4.40;;
32964;SDS011;19317;48.226;11.686;2023-04-06T17:12:15;6.10;;;4.37;;
32964;SDS011;19317;48.226;11.686;2023-04-06T17:17:06;5.43;;;4.93;;
32964;SDS011;19317;48.226;11.686;2023-04-06T17:21:56;5.20;;;4.70;;
32964;SDS011;19317;48.226;11.686;2023-04-06T17:26:47;7.50;;;4.70;;
32964;SDS011;19317;48.226;11.686;2023-04-06T17:31:37;5.80;;;4.60;;
32964;SDS011;19317;48.226;11.686;2023-04-06T17:36:28;4.83;;;4.43;;
32964;SDS011;19317;48.226;11.686;2023-04-06T17:41:18;6.90;;;5.00;;
32964;SDS011;19317;48.226;11.686;2023-04-06T17:46:09;5.20;;;4.70;;
32964;SDS011;19317;48.226;11.686;2023-04-06T17:50:59;5.87;;;5.27;;
32964;SDS011;19317;48.226;11.686;2023-04-06T17:55:50;5.17;;;4.67;;
32964;SDS011;19317;48.226;11.686;2023-04-06T18:00:40;5.50;;;5.00;;
32964;SDS011;19317;48.226;11.686;2023-04-06T18:05:30;6.33;;;5.50;;
32964;SDS011;19317;48.226;11.686;2023-04-06T18:10:21;6.43;;;5.20;;
32964;SDS011;19317;48.226;11.686;2023-04-06T18:15:12;6.83;;;5.13;;
32964;SDS011;19317;48.226;11.686;2023-04-06T18:20:03;7.87;;;5.33;;
32964;SDS011;19317;48.226;11.686;2023-04-06T18:24:54;5.60;;;5.10;;
32964;SDS011;19317;48.226;11.686;2023-04-06T18:29:44;5.97;;;5.20;;
32964;SDS011;19317;48.226;11.686;2023-04-06T18:34:35;5.70;;;5.20;;
32964;SDS011;19317;48.226;11.686;2023-04-06T18:39:25;5.70;;;5.10;;
32964;SDS011;19317;48.226;11.686;2023-04-06T18:44:16;7.53;;;5.83;;
32964;SDS011;19317;48.226;11.686;2023-04-06T18:49:07;7.23;;;5.20;;
32964;SDS011;19317;48.226;11.686;2023-04-06T18:53:58;6.30;;;5.63;;
32964;SDS011;19317;48.226;11.686;2023-04-06T18:58:49;6.20;;;5.40;;
32964;SDS011;19317;48.226;11.686;2023-04-06T19:03:40;8.40;;;5.47;;
32964;SDS011;19317;48.226;11.686;2023-04-06T19:08:30;6.13;;;5.33;;
32964;SDS011;19317;48.226;11.686;2023-04-06T19:13:20;6.87;;;5.13;;
32964;SDS011;19317;48.226;11.686;2023-04-06T19:18:11;7.07;;;5.40;;
32964;SDS011;19317;48.226;11.686;2023-04-06T19:23:01;6.97;;;5.43;;
32964;SDS011;19317;48.226;11.686;2023-04-06T19:27:52;6.73;;;5.27;;
32964;SDS011;19317;48.226;11.686;2023-04-06T19:32:42;6.23;;;5.63;;
32964;SDS011;19317;48.226;11.686;2023-04-06T19:37:33;6.13;;;5.53;;
32964;SDS011;19317;48.226;11.686;2023-04-06T19:42:25;7.60;;;5.17;;
32964;SDS011;19317;48.226;11.686;2023-04-06T19:47:15;5.57;;;4.93;;
32964;SDS011;19317;48.226;11.686;2023-04-06T19:52:06;8.30;;;5.80;;
32964;SDS011;19317;48.226;11.686;2023-04-06T19:56:57;8.20;;;5.80;;
32964;SDS011;19317;48.226;11.686;2023-04-06T20:01:47;15.87;;;9.87;;
32964;SDS011;19317;48.226;11.686;2023-04-06T20:06:38;10.63;;;7.73;;
32964;SDS011;19317;48.226;11.686;2023-04-06T20:11:28;7.07;;;5.90;;
32964;SDS011;19317;48.226;11.686;2023-04-06T20:16:18;8.93;;;6.47;;
32964;SDS011;19317;48.226;11.686;2023-04-06T20:21:09;7.33;;;6.53;;
32964;SDS011;19317;48.226;11.686;2023-04-06T20:26:00;7.97;;;6.30;;
32964;SDS011;19317;48.226;11.686;2023-04-06T20:30:51;8.20;;;6.43;;
32964;SDS011;19317;48.226;11.686;2023-04-06T20:35:41;10.93;;;7.00;;
32964;SDS011;19317;48.226;11.686;2023-04-06T20:40:32;8.23;;;6.13;;
32964;SDS011;19317;48.226;11.686;2023-04-06T20:45:23;7.00;;;6.30;;
32964;SDS011;19317;48.226;11.686;2023-04-06T20:50:13;8.67;;;6.50;;
32964;SDS011;19317;48.226;11.686;2023-04-06T20:55:04;8.43;;;6.50;;
32964;SDS011;19317;48.226;11.686;2023-04-06T20:59:54;10.43;;;7.20;;
32964;SDS011;19317;48.226;11.686;2023-04-06T21:04:45;8.50;;;7.60;;
32964;SDS011;19317;48.226;11.686;2023-04-06T21:09:38;11.87;;;7.77;;
32964;SDS011;19317;48.226;11.686;2023-04-06T21:14:29;8.53;;;7.00;;
32964;SDS011;19317;48.226;11.686;2023-04-06T21:19:20;8.60;;;6.80;;
32964;SDS011;19317;48.226;11.686;2023-04-06T21:24:11;8.27;;;6.70;;
32964;SDS011;19317;48.226;11.686;2023-04-06T21:29:02;8.27;;;7.07;;
32964;SDS011;19317;48.226;11.686;2023-04-06T21:33:52;8.03;;;7.20;;
32964;SDS011;19317;48.226;11.686;2023-04-06T21:38:43;10.30;;;7.60;;
32964;SDS011;19317;48.226;11.686;2023-04-06T21:43:33;10.67;;;7.03;;
32964;SDS011;19317;48.226;11.686;2023-04-06T21:48:23;9.10;;;6.93;;
32964;SDS011;19317;48.226;11.686;2023-04-06T21:53:14;8.60;;;7.60;;
32964;SDS011;19317;48.226;11.686;2023-04-06T21:58:04;9.17;;;7.37;;
32964;SDS011;19317;48.226;11.686;2023-04-06T22:02:55;8.77;;;6.67;;
32964;SDS011;19317;48.226;11.686;2023-04-06T22:07:45;9.53;;;7.23;;
32964;SDS011;19317;48.226;11.686;2023-04-06T22:12:36;9.50;;;6.83;;
32964;SDS011;19317;48.226;11.686;2023-04-06T22:17:27;8.63;;;6.67;;
32964;SDS011;19317;48.226;11.686;2023-04-06T22:22:18;10.40;;;6.47;;
32964;SDS011;19317;48.226;11.686;2023-04-06T22:27:09;8.33;;;6.40;;
32964;SDS011;19317;48.226;11.686;2023-04-06T22:31:59;8.07;;;6.70;;
32964;SDS011;19317;48.226;11.686;2023-04-06T22:36:50;8.60;;;6.87;;
32964;SDS011;19317;48.226;11.686;2023-04-06T22:41:40;9.47;;;6.93;;
32964;SDS011;19317;48.226;11.686;2023-04-06T22:46:31;8.10;;;6.57;;
32964;SDS011;19317;48.226;11.686;2023-04-06T22:51:21;7.93;;;6.07;;
32964;SDS011;19317;48.226;11.686;2023-04-06T22:56:11;8.20;;;6.53;;
32964;SDS011;19317;48.226;11.686;2023-04-06T23:01:02;7.40;;;6.27;;
32964;SDS011;19317;48.226;11.686;2023-04-06T23:05:52;8.30;;;6.00;;
32964;SDS011;19317;48.226;11.686;2023-04-06T23:10:43;8.47;;;6.23;;
32964;SDS011;19317;48.226;11.686;2023-04-06T23:15:33;9.83;;;6.77;;
32964;SDS011;19317;48.226;11.686;2023-04-06T23:20:24;7.50;;;6.30;;
32964;SDS011;19317;48.226;11.686;2023-04-06T23:25:14;9.50;;;7.07;;
32964;SDS011;19317;48.226;11.686;2023-04-06T23:30:05;7.67;;;6.57;;
32964;SDS011;19317;48.226;11.686;2023-04-06T23:34:56;8.70;;;6.57;;
32964;SDS011;19317;48.226;11.686;2023-04-06T23:39:46;6.87;;;6.17;;
32964;SDS011;19317;48.226;11.686;2023-04-06T23:44:37;7.33;;;6.13;;
32964;SDS011;19317;48.226;11.686;2023-04-06T23:49:27;8.23;;;5.97;;
32964;SDS011;19317;48.226;11.686;2023-04-06T23:54:18;7.83;;;6.03;;
32964;SDS011;19317;48.226;11.686;2023-04-06T23:59:08;7.30;;;5.73;;
